»·PEaware :: N99FL KSNA-KSNA

N99FL :: KSNA-KSNA

FLIGHT INFORMATION

Flight Status: Arrived
Operator: Privately registered:
United States
More flights under this callsign
Pilot: Fr Itz L. (20918)
Aircraft: Diamond DA-40
(DA40)
More flights by this aircraft type
Origin: KSNA John Wayne-Orange Co
United States
Destination: KSNA John Wayne-Orange Co
United States
More flights between these airports :: More routes between these airports
Route: +SLI
File this flight plan on PilotEdge
Remarks: practis I1
Altitude:
(Current/Filed)
3,000ft
Speed:
(Current/Filed)
125kts
Departed: 18-Nov-20 09:45 AM
Arrived: 18-Nov-20 10:19 AM
Distance/Time
Traveled:
0nm/0:34
Distance/Time
To Go:
Arrived

Flight Plot

Page will automatically refresh every two minutes.


Map Options




Map Legend


Flown Route
Filed Route
Departure Airport
Arrival Airport
Navaid (VOR, NDB)
Fix

Horizontal Profiles

Position Reports

Time Latitude Longitude Heading Altitude Ground
Speed
18-Nov-20 09:06 33.675705 -117.871159 208 52ft 0kts
18-Nov-20 09:07 33.675705 -117.871159 208 52ft 0kts
18-Nov-20 09:08 33.675705 -117.871159 208 52ft 0kts
18-Nov-20 09:09 33.675705 -117.871160 208 52ft 0kts
18-Nov-20 09:10 33.675705 -117.871160 208 52ft 0kts
18-Nov-20 09:11 33.675705 -117.871160 208 52ft 0kts
18-Nov-20 09:12 33.675705 -117.871160 208 52ft 0kts
18-Nov-20 09:13 33.675705 -117.871160 208 52ft 0kts
18-Nov-20 09:14 33.675705 -117.871160 208 52ft 0kts
18-Nov-20 09:15 33.675705 -117.871160 208 52ft 0kts
18-Nov-20 09:16 33.675705 -117.871160 208 52ft 0kts
18-Nov-20 09:17 33.675705 -117.871160 208 52ft 0kts
18-Nov-20 09:18 33.675705 -117.871160 208 52ft 0kts
18-Nov-20 09:19 33.675705 -117.871160 208 52ft 0kts
18-Nov-20 09:20 33.675705 -117.871160 208 52ft 0kts
18-Nov-20 09:21 33.675705 -117.871160 208 52ft 0kts
18-Nov-20 09:22 33.675705 -117.871160 208 52ft 0kts
18-Nov-20 09:23 33.675704 -117.871160 208 52ft 0kts
18-Nov-20 09:24 33.675704 -117.871160 208 52ft 0kts
18-Nov-20 09:25 33.675704 -117.871160 208 52ft 0kts
18-Nov-20 09:26 33.675704 -117.871160 208 52ft 0kts
18-Nov-20 09:27 33.675704 -117.871160 208 52ft 0kts
18-Nov-20 09:28 33.675704 -117.871160 208 52ft 0kts
18-Nov-20 09:29 33.675704 -117.871160 208 52ft 0kts
18-Nov-20 09:30 33.675704 -117.871160 208 52ft 0kts
18-Nov-20 09:31 33.675704 -117.871160 208 52ft 0kts
18-Nov-20 09:32 33.675704 -117.871160 208 52ft 0kts
18-Nov-20 09:33 33.675704 -117.871160 208 52ft 0kts
18-Nov-20 09:34 33.675704 -117.871160 208 52ft 0kts
18-Nov-20 09:35 33.675704 -117.871160 208 52ft 0kts
18-Nov-20 09:36 33.676690 -117.870330 27 52ft 15kts
18-Nov-20 09:37 33.680456 -117.867596 37 44ft 18kts
18-Nov-20 09:38 33.681262 -117.866808 86 43ft 0kts
18-Nov-20 09:39 33.681262 -117.866808 86 43ft 0kts
18-Nov-20 09:40 33.681262 -117.866808 86 43ft 0kts
18-Nov-20 09:41 33.681262 -117.866808 86 43ft 0kts
18-Nov-20 09:42 33.681262 -117.866808 86 43ft 0kts
18-Nov-20 09:43 33.679190 -117.866720 204 47ft 31kts
18-Nov-20 09:44 33.664838 -117.876389 246 400ft 74kts
18-Nov-20 09:45 33.653880 -117.894511 232 674ft 98kts
18-Nov-20 09:46 33.641675 -117.914677 229 916ft 105kts
18-Nov-20 09:47 33.625991 -117.937849 232 1220ft 98kts
18-Nov-20 09:48 33.608683 -117.964366 232 1463ft 91kts
18-Nov-20 09:49 33.595255 -117.984844 232 2146ft 66kts
18-Nov-20 09:50 33.584676 -118.000803 243 2525ft 61kts
18-Nov-20 09:51 33.596452 -118.000533 341 2713ft 65kts
18-Nov-20 09:52 33.618061 -117.996672 21 3021ft 113kts
18-Nov-20 09:53 33.645237 -117.987600 13 3073ft 107kts
18-Nov-20 09:54 33.674532 -117.978479 15 2994ft 128kts
18-Nov-20 09:55 33.701257 -117.957546 33 3008ft 127kts
18-Nov-20 09:56 33.728388 -117.935893 32 2874ft 128kts
18-Nov-20 09:57 33.750850 -117.915712 35 3256ft 94kts
18-Nov-20 09:58 33.773498 -117.897011 28 3113ft 125kts
18-Nov-20 09:59 33.799912 -117.878597 34 2773ft 128kts
18-Nov-20 10:00 33.824347 -117.855847 48 2872ft 113kts
18-Nov-20 10:01 33.842346 -117.835272 33 3258ft 107kts
18-Nov-20 10:02 33.869197 -117.813749 34 2811ft 126kts
18-Nov-20 10:03 33.894370 -117.791518 36 2787ft 119kts
18-Nov-20 10:04 33.920863 -117.768979 31 2725ft 122kts
18-Nov-20 10:05 33.945920 -117.757376 49 2715ft 82kts
18-Nov-20 10:06 33.927238 -117.752478 188 3048ft 74kts
18-Nov-20 10:07 33.903939 -117.755539 187 3046ft 113kts
18-Nov-20 10:08 33.875782 -117.760612 188 2883ft 117kts
18-Nov-20 10:09 33.847028 -117.761891 184 2795ft 122kts
18-Nov-20 10:10 33.817102 -117.763641 179 2751ft 116kts
18-Nov-20 10:11 33.804084 -117.786480 258 2651ft 98kts
18-Nov-20 10:12 33.783203 -117.801142 215 2232ft 114kts
18-Nov-20 10:13 33.763864 -117.818294 219 1800ft 114kts
18-Nov-20 10:14 33.744695 -117.829447 182 1504ft 108kts
18-Nov-20 10:15 33.720640 -117.838489 205 878ft 110kts
18-Nov-20 10:16 33.704454 -117.850949 201 709ft 91kts
18-Nov-20 10:17 33.685379 -117.862709 210 296ft 92kts
18-Nov-20 10:18 33.676591 -117.870378 214 53ft 0kts

Navigation Log

Ident Type
Flight plan parsing failed, navigation log unavailable